Time;durP1;ratioP1;P1;durP2;ratioP2;P2;SDS_P1;SDS_P2;PMS_P1;PMS_P2;Temp;Humidity;BMP_temperature;BMP_pressure;BME280_temperature;BME280_humidity;BME280_pressure;Samples;Min_cycle;Max_cycle;Signal;HPM_P1;HPM_P2
2022/05/05 00:01:39;;;;;;;5.72;4.28;;;10.40;99.90;;;;;;4935204;29;20052;-76
2022/05/05 00:04:05;;;;;;;4.13;3.33;;;10.40;99.90;;;;;;4934923;29;20084;-76
2022/05/05 00:06:31;;;;;;;5.70;4.88;;;10.40;99.90;;;;;;4935023;29;20036;-76
2022/05/05 00:08:57;;;;;;;5.28;4.57;;;10.30;99.90;;;;;;4935080;29;20024;-75
2022/05/05 00:14:31;;;;;;;7.20;4.65;;;10.30;99.90;;;;;;4935088;29;20551;-76
2022/05/05 00:17:08;;;;;;;6.97;4.00;;;10.30;99.90;;;;;;4934749;29;20456;-76
2022/05/05 00:19:36;;;;;;;6.25;4.43;;;10.30;99.90;;;;;;4934876;29;20092;-75
2022/05/05 00:22:03;;;;;;;6.82;4.00;;;10.30;99.90;;;;;;4917982;29;20050;-76
2022/05/05 00:24:29;;;;;;;7.22;4.15;;;10.20;99.90;;;;;;4934845;29;20028;-76
2022/05/05 00:26:55;;;;;;;4.75;4.13;;;10.20;99.90;;;;;;4934777;29;20534;-76
2022/05/05 00:29:21;;;;;;;5.72;4.22;;;10.20;99.90;;;;;;4917657;29;20376;-76
2022/05/05 00:31:47;;;;;;;5.47;4.68;;;10.20;99.90;;;;;;4934793;29;20023;-76
2022/05/05 00:34:13;;;;;;;5.35;4.25;;;10.10;99.90;;;;;;4934670;29;20032;-76
2022/05/05 00:36:39;;;;;;;9.52;4.55;;;10.10;99.90;;;;;;4934560;29;20030;-76
2022/05/05 00:39:06;;;;;;;6.65;4.88;;;10.10;99.90;;;;;;4934762;29;20035;-76
2022/05/05 00:41:43;;;;;;;6.05;4.57;;;10.10;99.90;;;;;;4934814;29;20059;-76
2022/05/05 00:44:09;;;;;;;8.65;4.85;;;10.10;99.90;;;;;;4917471;29;20028;-76
2022/05/05 00:46:35;;;;;;;7.05;3.97;;;10.10;99.90;;;;;;4934606;29;20036;-75
2022/05/05 00:49:01;;;;;;;6.47;4.53;;;10.10;99.90;;;;;;4917521;29;20507;-77
2022/05/05 00:51:27;;;;;;;5.35;4.50;;;10.00;99.90;;;;;;4917482;29;20533;-75
2022/05/05 00:53:54;;;;;;;5.32;4.25;;;10.00;99.90;;;;;;4934441;29;20401;-76
2022/05/05 00:56:21;;;;;;;5.32;3.72;;;10.10;99.90;;;;;;4934567;29;20416;-76
2022/05/05 00:58:48;;;;;;;4.82;3.70;;;10.10;99.90;;;;;;4934476;29;20047;-77
2022/05/05 01:01:20;;;;;;;4.05;3.65;;;10.20;99.90;;;;;;4934589;29;20373;-75
2022/05/05 01:03:47;;;;;;;5.13;4.05;;;10.00;99.90;;;;;;4934645;29;20106;-77
2022/05/05 01:06:14;;;;;;;7.65;4.20;;;10.00;99.90;;;;;;4917431;29;20531;-76
2022/05/05 01:08:41;;;;;;;6.00;4.32;;;10.00;99.90;;;;;;4934636;29;20040;-77
2022/05/05 01:11:07;;;;;;;5.22;4.13;;;9.90;99.90;;;;;;4934486;29;20075;-76
2022/05/05 01:13:33;;;;;;;5.47;4.45;;;9.80;99.90;;;;;;4934219;29;20118;-75
2022/05/05 01:15:59;;;;;;;6.05;4.75;;;9.80;99.90;;;;;;4934590;29;20103;-76
2022/05/05 01:18:25;;;;;;;4.55;4.10;;;9.80;99.90;;;;;;4917492;29;20075;-76
2022/05/05 01:20:52;;;;;;;5.35;4.00;;;9.70;99.90;;;;;;4938040;29;20168;-76
2022/05/05 01:23:19;;;;;;;5.55;3.83;;;9.70;99.90;;;;;;4937949;29;20031;-76
2022/05/05 01:28:32;;;;;;;7.53;3.17;;;9.70;99.90;;;;;;4937961;29;20495;-75
2022/05/05 01:30:59;;;;;;;7.10;3.63;;;9.70;99.90;;;;;;4937823;29;20029;-76
2022/05/05 01:33:26;;;;;;;3.65;2.97;;;9.60;99.90;;;;;;4937811;29;20042;-76
2022/05/05 01:35:57;;;;;;;3.60;3.30;;;9.60;99.90;;;;;;4937776;29;20035;-76
2022/05/05 01:38:25;;;;;;;4.18;3.63;;;9.60;99.90;;;;;;4937693;29;20067;-77
2022/05/05 01:40:51;;;;;;;5.53;3.58;;;9.60;99.90;;;;;;4920844;29;20055;-75
2022/05/05 01:43:19;;;;;;;4.80;3.70;;;8.30;99.90;;;;;;4937565;29;20134;-76
2022/05/05 01:45:46;;;;;;;5.22;3.40;;;9.50;99.90;;;;;;4937719;29;20028;-76
2022/05/05 01:48:12;;;;;;;6.78;4.05;;;9.40;99.90;;;;;;4937490;29;20032;-77
2022/05/05 01:50:38;;;;;;;4.32;3.92;;;9.30;99.90;;;;;;4937600;29;20486;-76
2022/05/05 01:53:04;;;;;;;4.60;3.90;;;9.30;99.90;;;;;;4937422;29;20023;-77
2022/05/05 01:55:31;;;;;;;4.85;3.70;;;9.30;99.90;;;;;;4937397;29;20047;-76
2022/05/05 01:57:58;;;;;;;5.32;4.53;;;9.30;99.90;;;;;;4919883;29;20498;-76
2022/05/05 02:00:25;;;;;;;3.83;3.45;;;9.30;99.90;;;;;;4920184;29;20043;-76
2022/05/05 02:02:51;;;;;;;7.57;4.07;;;9.30;99.90;;;;;;4919877;29;20053;-77
2022/05/05 02:05:16;;;;;;;6.53;3.40;;;9.20;99.90;;;;;;4937266;29;20055;-77
2022/05/05 02:07:43;;;;;;;3.85;3.40;;;9.30;99.90;;;;;;4937099;29;20514;-76
2022/05/05 02:10:13;;;;;;;3.78;3.05;;;9.20;99.90;;;;;;4937068;29;20024;-76
2022/05/05 02:12:40;;;;;;;3.58;3.28;;;9.20;99.90;;;;;;4937226;29;20058;-77
2022/05/05 02:15:07;;;;;;;5.03;3.58;;;9.20;99.90;;;;;;4919596;29;20047;-76
2022/05/05 02:17:34;;;;;;;3.95;3.55;;;9.20;99.90;;;;;;4937037;29;20047;-76
2022/05/05 02:20:00;;;;;;;5.32;3.55;;;9.20;99.90;;;;;;4919901;29;20374;-76
2022/05/05 02:22:27;;;;;;;3.53;3.17;;;9.20;99.90;;;;;;4936804;29;20098;-76
2022/05/05 02:24:53;;;;;;;5.28;3.78;;;9.20;99.90;;;;;;4920118;29;20034;-77
2022/05/05 02:27:19;;;;;;;6.60;3.55;;;9.10;99.90;;;;;;4936973;29;20020;-76
2022/05/05 02:29:48;;;;;;;3.58;3.25;;;9.10;99.90;;;;;;4936384;29;20367;-76
2022/05/05 02:32:15;;;;;;;5.57;3.95;;;9.10;99.90;;;;;;4936532;29;20472;-76
2022/05/05 02:34:41;;;;;;;5.05;3.35;;;9.10;99.90;;;;;;4936756;29;20036;-76
2022/05/05 02:39:51;;;;;;;3.90;3.50;;;9.00;99.90;;;;;;4936979;29;20503;-77
2022/05/05 02:42:17;;;;;;;3.83;3.50;;;9.00;99.90;;;;;;4936747;29;20031;-76
2022/05/05 02:44:44;;;;;;;7.28;3.63;;;9.00;99.90;;;;;;4936500;29;20447;-76
2022/05/05 02:47:10;;;;;;;4.70;3.60;;;9.00;99.90;;;;;;4919356;29;20024;-77
2022/05/05 02:49:36;;;;;;;7.25;2.97;;;9.00;99.90;;;;;;4936602;29;20357;-76
2022/05/05 02:52:06;;;;;;;4.78;4.00;;;9.00;99.90;;;;;;4936601;29;20108;-77
2022/05/05 02:57:20;;;;;;;4.95;4.45;;;8.90;99.90;;;;;;4936451;29;20502;-77
2022/05/05 02:59:47;;;;;;;7.55;3.70;;;8.90;99.90;;;;;;4936389;29;20360;-76
2022/05/05 03:02:13;;;;;;;4.93;4.43;;;8.90;99.90;;;;;;4936201;29;20019;-76
2022/05/05 03:04:39;;;;;;;5.68;4.80;;;8.90;99.90;;;;;;4936435;29;20032;-77
2022/05/05 03:07:05;;;;;;;8.02;5.43;;;8.90;99.90;;;;;;4936113;29;20372;-76
2022/05/05 03:09:30;;;;;;;4.22;3.83;;;8.80;99.90;;;;;;4936334;29;20023;-77
2022/05/05 03:11:56;;;;;;;5.93;3.80;;;8.80;99.90;;;;;;4919435;29;20431;-77
2022/05/05 03:14:22;;;;;;;5.10;3.58;;;8.80;99.90;;;;;;4935933;29;20039;-76
2022/05/05 03:16:47;;;;;;;4.13;3.40;;;8.70;99.90;;;;;;4919075;29;20028;-76
2022/05/05 03:19:13;;;;;;;5.18;3.70;;;8.70;99.90;;;;;;4936154;29;20020;-76
2022/05/05 03:21:39;;;;;;;5.78;3.80;;;8.70;99.90;;;;;;4936134;29;20377;-77
2022/05/05 03:24:05;;;;;;;6.28;3.50;;;8.60;99.90;;;;;;4936172;29;20776;-76
2022/05/05 03:26:30;;;;;;;6.88;5.00;;;8.60;99.90;;;;;;4935938;29;20483;-76
2022/05/05 03:28:56;;;;;;;7.97;4.68;;;8.70;99.90;;;;;;4936147;29;20155;-76
2022/05/05 03:31:22;;;;;;;5.10;3.90;;;8.50;99.90;;;;;;4935753;29;20020;-76
2022/05/05 03:33:48;;;;;;;5.38;4.03;;;8.60;99.90;;;;;;4935689;29;20388;-76
2022/05/05 03:36:14;;;;;;;5.50;4.07;;;8.60;99.90;;;;;;4936082;29;20028;-75
2022/05/05 03:38:39;;;;;;;5.70;3.95;;;8.60;99.90;;;;;;4935893;29;20517;-76
2022/05/05 03:41:05;;;;;;;4.97;3.72;;;8.60;99.90;;;;;;4935448;29;20039;-76
2022/05/05 03:43:32;;;;;;;5.15;3.90;;;8.60;99.90;;;;;;4935269;29;20114;-76
2022/05/05 03:45:58;;;;;;;5.90;4.15;;;8.50;99.90;;;;;;4935487;29;20390;-78
2022/05/05 03:48:23;;;;;;;8.88;4.32;;;8.50;99.90;;;;;;4919952;29;20119;-77
2022/05/05 03:50:49;;;;;;;5.25;4.05;;;8.40;99.90;;;;;;4918698;29;20028;-77
2022/05/05 03:53:15;;;;;;;6.13;4.03;;;8.90;99.90;;;;;;4935753;29;20038;-78
2022/05/05 03:55:40;;;;;;;6.03;3.65;;;9.00;99.90;;;;;;4938044;29;20039;-78
2022/05/05 03:58:06;;;;;;;7.03;3.90;;;8.90;99.90;;;;;;4935226;29;20099;-76
2022/05/05 04:00:31;;;;;;;6.82;3.80;;;8.90;99.90;;;;;;4934791;29;20511;-77
2022/05/05 04:05:41;;;;;;;8.15;4.32;;;8.80;99.90;;;;;;4934969;29;20038;-77
2022/05/05 04:08:07;;;;;;;6.93;5.20;;;8.80;99.90;;;;;;4934867;29;20024;-76
2022/05/05 04:10:33;;;;;;;7.05;5.05;;;8.70;99.90;;;;;;4935049;29;20035;-76
2022/05/05 04:12:58;;;;;;;7.05;4.75;;;8.60;99.90;;;;;;4935426;29;20103;-78
2022/05/05 04:15:24;;;;;;;12.43;4.97;;;8.70;99.90;;;;;;4935179;29;20480;-76
2022/05/05 04:17:51;;;;;;;6.78;4.53;;;8.70;99.90;;;;;;4943103;29;20028;-78
2022/05/05 04:20:17;;;;;;;8.23;4.80;;;8.70;99.90;;;;;;4944536;29;20024;-77
2022/05/05 04:22:43;;;;;;;6.00;4.72;;;8.70;99.90;;;;;;4939646;29;20038;-75
2022/05/05 04:25:09;;;;;;;7.57;4.88;;;8.70;99.90;;;;;;4938828;29;20450;-77
2022/05/05 04:27:36;;;;;;;5.32;4.68;;;8.70;99.90;;;;;;4937551;29;20030;-77
2022/05/05 04:30:02;;;;;;;6.45;5.03;;;8.70;99.90;;;;;;4919093;29;20028;-75
2022/05/05 04:32:29;;;;;;;6.70;5.25;;;8.80;99.90;;;;;;4919488;29;20020;-76
2022/05/05 04:34:55;;;;;;;8.18;4.72;;;8.80;99.90;;;;;;4936638;29;20127;-76
2022/05/05 04:37:21;;;;;;;7.35;5.20;;;8.90;99.90;;;;;;4936333;29;20047;-77
2022/05/05 04:39:46;;;;;;;7.05;5.47;;;9.00;99.90;;;;;;4935700;29;20436;-76
2022/05/05 04:42:12;;;;;;;6.72;4.68;;;9.10;99.90;;;;;;4918083;29;20028;-76
2022/05/05 04:44:38;;;;;;;7.97;5.28;;;9.00;99.90;;;;;;4935038;29;20035;-76
2022/05/05 04:47:04;;;;;;;7.30;5.72;;;9.00;99.90;;;;;;4934943;29;20024;-76
2022/05/05 04:49:31;;;;;;;8.40;4.95;;;9.10;99.90;;;;;;4917986;29;20032;-76
2022/05/05 04:51:57;;;;;;;8.13;5.35;;;9.10;99.90;;;;;;4935469;29;20163;-75
2022/05/05 04:54:23;;;;;;;7.50;5.50;;;9.20;99.90;;;;;;4938487;29;20071;-75
2022/05/05 04:56:49;;;;;;;7.95;5.50;;;9.40;99.90;;;;;;4937531;29;20024;-75
2022/05/05 04:59:14;;;;;;;8.17;6.13;;;9.40;99.90;;;;;;4900336;29;1111237;-75
2022/05/05 05:01:41;;;;;;;7.53;6.40;;;9.50;99.90;;;;;;4941416;29;20345;-76
2022/05/05 05:04:07;;;;;;;10.40;7.57;;;9.60;99.90;;;;;;4940023;29;20039;-75
2022/05/05 05:06:34;;;;;;;9.00;6.07;;;9.70;99.90;;;;;;4938824;29;20024;-76
2022/05/05 05:09:00;;;;;;;8.88;6.55;;;9.80;99.90;;;;;;4938781;29;20356;-76
2022/05/05 05:11:26;;;;;;;9.63;6.15;;;9.90;99.90;;;;;;4938178;29;20471;-75
2022/05/05 05:13:52;;;;;;;7.35;5.70;;;9.90;99.90;;;;;;4938364;29;20038;-75
2022/05/05 05:16:17;;;;;;;6.90;5.90;;;10.00;99.90;;;;;;4938014;29;20031;-74
2022/05/05 05:18:43;;;;;;;21.67;13.63;;;10.10;99.90;;;;;;4938163;29;20028;-75
2022/05/05 05:21:09;;;;;;;77.65;37.13;;;10.20;99.90;;;;;;4938119;29;20111;-75
2022/05/05 05:23:35;;;;;;;50.08;26.33;;;10.30;99.90;;;;;;4938371;29;20024;-75
2022/05/05 05:26:01;;;;;;;12.88;8.55;;;10.40;99.90;;;;;;4937865;29;20027;-75
2022/05/05 05:28:27;;;;;;;24.17;12.20;;;10.50;99.90;;;;;;4937772;29;20122;-76
2022/05/05 05:30:52;;;;;;;13.65;8.18;;;10.60;99.90;;;;;;4921486;29;20114;-75
2022/05/05 05:33:18;;;;;;;22.85;12.63;;;10.80;99.90;;;;;;4937675;29;20390;-75
2022/05/05 05:35:45;;;;;;;8.95;7.53;;;10.90;99.90;;;;;;4920287;29;20147;-75
2022/05/05 05:38:11;;;;;;;15.15;9.90;;;11.10;99.90;;;;;;4937682;29;20110;-77
2022/05/05 05:40:37;;;;;;;10.45;6.57;;;11.20;99.90;;;;;;4938043;29;20067;-75
2022/05/05 05:43:04;;;;;;;9.73;5.57;;;11.30;99.90;;;;;;4937862;29;20032;-84
2022/05/05 05:45:29;;;;;;;6.35;5.65;;;11.30;99.90;;;;;;4921181;29;20094;-75
2022/05/05 05:47:55;;;;;;;8.07;5.95;;;11.50;99.90;;;;;;4920864;29;20471;-76
2022/05/05 05:50:21;;;;;;;6.32;5.72;;;11.50;99.90;;;;;;4937924;29;20035;-75
2022/05/05 05:52:47;;;;;;;9.60;6.10;;;11.70;99.90;;;;;;4920747;29;20020;-76
2022/05/05 05:55:14;;;;;;;8.48;6.70;;;11.80;99.90;;;;;;4937892;29;20051;-85
2022/05/05 05:57:40;;;;;;;6.85;5.65;;;11.90;99.90;;;;;;4937739;29;20067;-77
2022/05/05 06:00:07;;;;;;;6.70;5.95;;;12.00;99.90;;;;;;4937734;29;20074;-78
2022/05/05 06:05:17;;;;;;;6.80;5.20;;;12.30;99.90;;;;;;4937378;29;20086;-75
2022/05/05 06:07:43;;;;;;;6.18;4.70;;;12.50;99.90;;;;;;4937202;29;20075;-74
2022/05/05 06:10:09;;;;;;;7.10;5.40;;;12.60;99.90;;;;;;4937045;29;20031;-75
2022/05/05 06:12:35;;;;;;;12.00;5.30;;;12.80;99.90;;;;;;4937366;29;20530;-75
2022/05/05 06:15:01;;;;;;;5.53;4.95;;;12.90;99.90;;;;;;4920242;29;20035;-74
2022/05/05 06:17:26;;;;;;;6.43;5.13;;;12.90;99.90;;;;;;4919926;29;20028;-75
2022/05/05 06:19:52;;;;;;;8.80;5.70;;;13.00;99.90;;;;;;4920019;29;20024;-75
2022/05/05 06:22:18;;;;;;;7.18;5.70;;;13.10;99.90;;;;;;4919962;29;20060;-75
2022/05/05 06:24:43;;;;;;;7.82;5.32;;;13.30;99.90;;;;;;4937139;29;20032;-75
2022/05/05 06:27:09;;;;;;;6.05;4.53;;;13.60;99.90;;;;;;4937119;29;20047;-75
2022/05/05 06:29:34;;;;;;;9.77;5.55;;;13.80;99.90;;;;;;4937076;29;20091;-75
2022/05/05 06:32:00;;;;;;;5.68;4.88;;;13.80;99.90;;;;;;4936926;29;20551;-76
2022/05/05 06:34:26;;;;;;;5.47;4.97;;;14.00;99.90;;;;;;4937050;29;20085;-75
2022/05/05 06:36:51;;;;;;;8.80;4.47;;;14.10;99.90;;;;;;4936706;29;20028;-74
2022/05/05 06:39:17;;;;;;;7.00;5.45;;;14.30;99.90;;;;;;4936834;29;20482;-74
2022/05/05 06:41:42;;;;;;;6.35;5.32;;;14.50;99.90;;;;;;4919696;29;20075;-74
2022/05/05 06:44:08;;;;;;;9.63;4.47;;;14.80;99.90;;;;;;4919812;29;20462;-75
2022/05/05 06:46:34;;;;;;;9.93;5.22;;;15.00;99.90;;;;;;4936440;29;20036;-75
2022/05/05 06:48:59;;;;;;;7.35;4.70;;;15.30;99.90;;;;;;4936579;29;20472;-75
2022/05/05 06:51:25;;;;;;;6.30;4.40;;;15.50;99.90;;;;;;4936549;29;20122;-75
2022/05/05 06:53:51;;;;;;;5.07;4.53;;;15.60;99.90;;;;;;4936173;29;20039;-75
2022/05/05 06:56:17;;;;;;;4.53;4.13;;;15.60;99.90;;;;;;4936522;29;20049;-75
2022/05/05 06:58:42;;;;;;;7.82;4.40;;;15.70;99.90;;;;;;4936481;29;20044;-75
2022/05/05 07:05:23;;;;;;;4.68;3.90;;;16.00;99.90;;;;;;4936439;29;20038;-75
2022/05/05 07:06:37;;;;;;;5.03;4.47;;;16.10;99.90;;;;;;4936204;29;20091;-75
2022/05/05 07:11:47;;;;;;;4.65;4.25;;;16.20;99.90;;;;;;4936641;29;20080;-75
2022/05/05 07:14:13;;;;;;;6.90;4.55;;;16.30;99.90;;;;;;4936027;29;20416;-76
2022/05/05 07:16:38;;;;;;;7.13;4.43;;;16.30;99.90;;;;;;4935449;29;20106;-75
2022/05/05 07:19:04;;;;;;;5.55;4.78;;;16.50;99.90;;;;;;4936479;29;20020;-75
2022/05/05 07:21:30;;;;;;;3.67;3.38;;;16.60;99.90;;;;;;4919041;29;20031;-76
2022/05/05 07:23:57;;;;;;;4.93;3.95;;;16.80;99.90;;;;;;4936097;29;20044;-75
2022/05/05 07:26:23;;;;;;;5.10;4.20;;;16.90;98.10;;;;;;4936031;29;20024;-75
2022/05/05 07:28:48;;;;;;;6.72;4.45;;;16.50;98.50;;;;;;4936283;29;20368;-75
2022/05/05 07:31:14;;;;;;;5.90;4.38;;;17.10;99.90;;;;;;4935913;29;20024;-75
2022/05/05 07:33:39;;;;;;;3.92;3.35;;;17.20;99.90;;;;;;4918738;29;20102;-74
2022/05/05 07:36:05;;;;;;;5.28;4.03;;;17.40;99.90;;;;;;4935878;29;20036;-75
2022/05/05 07:38:31;;;;;;;3.63;3.30;;;17.50;99.90;;;;;;4934688;29;20020;-75
2022/05/05 07:40:57;;;;;;;5.70;3.17;;;17.70;97.10;;;;;;4934710;29;20032;-75
2022/05/05 07:43:23;;;;;;;3.80;3.40;;;17.90;98.70;;;;;;4934618;29;20019;-75
2022/05/05 07:45:49;;;;;;;4.20;3.50;;;18.10;99.00;;;;;;4917577;29;20028;-76
2022/05/05 07:48:15;;;;;;;3.90;3.50;;;18.20;99.10;;;;;;4934788;29;20078;-77
2022/05/05 07:50:41;;;;;;;3.45;3.15;;;18.30;99.90;;;;;;4917613;29;20456;-76
2022/05/05 07:53:06;;;;;;;5.13;3.33;;;18.30;99.90;;;;;;4935077;29;20055;-76
2022/05/05 07:55:32;;;;;;;3.67;3.33;;;18.40;99.90;;;;;;4935675;29;20043;-77
2022/05/05 07:57:58;;;;;;;5.68;3.95;;;18.50;99.90;;;;;;4935453;29;20063;-81
2022/05/05 08:00:24;;;;;;;2.80;2.60;;;18.60;99.80;;;;;;4918378;29;20030;-82
2022/05/05 08:02:50;;;;;;;3.40;2.33;;;18.80;94.10;;;;;;4935936;29;20027;-81
2022/05/05 08:05:17;;;;;;;3.83;2.42;;;18.80;92.90;;;;;;4918655;29;20051;-81
2022/05/05 08:07:49;;;;;;;4.20;2.03;;;18.50;92.40;;;;;;4935729;29;20026;-82
2022/05/05 08:10:20;;;;;;;2.78;2.30;;;19.00;90.90;;;;;;4918009;29;20344;-80
2022/05/05 08:12:46;;;;;;;7.38;2.70;;;19.20;90.50;;;;;;4935798;29;20035;-82
2022/05/05 08:15:13;;;;;;;3.30;3.00;;;19.20;91.00;;;;;;4918829;29;20062;-81
2022/05/05 08:17:38;;;;;;;3.63;3.05;;;19.30;91.40;;;;;;4936007;29;20375;-82
2022/05/05 08:20:07;;;;;;;3.42;2.50;;;19.40;90.60;;;;;;4918836;29;20032;-81
2022/05/05 08:22:33;;;;;;;3.97;2.30;;;19.40;90.20;;;;;;4935303;29;20515;-80
2022/05/05 08:30:27;;;;;;;3.28;2.28;;;19.60;89.60;;;;;;4935902;29;20091;-85
2022/05/05 08:32:53;;;;;;;5.18;2.90;;;19.60;88.20;;;;;;4918958;29;20031;-80
2022/05/05 08:35:18;;;;;;;3.15;2.50;;;19.60;88.20;;;;;;4919198;29;20039;-81
2022/05/05 08:37:44;;;;;;;4.15;3.10;;;19.70;85.20;;;;;;4935680;29;20456;-80
2022/05/05 08:40:13;;;;;;;2.30;2.10;;;19.70;86.70;;;;;;4918609;29;20032;-79
2022/05/05 08:42:39;;;;;;;3.13;2.20;;;19.70;88.50;;;;;;4917022;29;20023;-78
2022/05/05 08:45:05;;;;;;;2.90;2.60;;;20.00;89.10;;;;;;4934837;29;20043;-77
2022/05/05 08:47:32;;;;;;;2.33;2.13;;;20.00;86.40;;;;;;4934629;29;20028;-76
2022/05/05 08:50:00;;;;;;;3.53;2.58;;;20.00;84.50;;;;;;4934425;29;20055;-77
2022/05/05 08:52:30;;;;;;;2.50;2.28;;;20.10;85.80;;;;;;4934757;29;20032;-77
2022/05/05 08:54:55;;;;;;;2.40;2.20;;;20.10;82.10;;;;;;4934566;29;20036;-77
2022/05/05 08:57:21;;;;;;;7.80;2.33;;;20.10;81.60;;;;;;4934520;29;20457;-77
2022/05/05 08:59:47;;;;;;;2.78;2.03;;;20.10;82.30;;;;;;4917437;29;20035;-77
2022/05/05 09:02:13;;;;;;;2.60;2.28;;;20.20;83.10;;;;;;4917521;29;20083;-78
2022/05/05 09:04:44;;;;;;;2.45;2.03;;;20.20;80.20;;;;;;4917777;29;20032;-79
2022/05/05 09:07:10;;;;;;;2.65;2.08;;;20.40;80.30;;;;;;4917683;29;20024;-79
2022/05/05 09:09:36;;;;;;;2.42;2.22;;;20.50;82.10;;;;;;4917490;29;20039;-79
2022/05/05 09:12:13;;;;;;;4.22;2.15;;;20.70;85.10;;;;;;4934494;29;20055;-79
2022/05/05 09:14:41;;;;;;;3.03;2.67;;;20.70;84.80;;;;;;4933899;29;20651;-78
2022/05/05 09:17:07;;;;;;;2.70;2.50;;;20.80;83.10;;;;;;4917016;29;20031;-78
2022/05/05 09:19:38;;;;;;;4.13;2.63;;;20.90;82.50;;;;;;4934677;29;20051;-80
2022/05/05 09:22:05;;;;;;;3.63;3.00;;;20.90;85.80;;;;;;4934595;29;20610;-79
2022/05/05 09:24:36;;;;;;;2.53;2.33;;;21.00;84.10;;;;;;4917531;29;20046;-78
2022/05/05 09:27:17;;;;;;;2.83;2.58;;;21.00;84.20;;;;;;4934566;29;20478;-77
2022/05/05 09:30:06;;;;;;;4.13;2.13;;;21.10;83.30;;;;;;4934483;29;20382;-78
2022/05/05 09:32:58;;;;;;;3.75;2.50;;;21.20;82.80;;;;;;4917622;29;20019;-78
2022/05/05 09:35:24;;;;;;;3.58;2.50;;;21.30;82.30;;;;;;4930232;29;20051;-78
2022/05/05 09:37:54;;;;;;;2.35;2.15;;;21.20;81.10;;;;;;4934111;29;20059;-77
2022/05/05 09:40:22;;;;;;;4.43;2.38;;;21.20;82.50;;;;;;4936172;29;20027;-76
2022/05/05 09:42:52;;;;;;;3.63;2.22;;;21.30;83.00;;;;;;4937964;29;20004;-78
2022/05/05 09:45:19;;;;;;;2.55;2.30;;;21.30;79.70;;;;;;4937913;29;20035;-76
2022/05/05 09:47:56;;;;;;;4.38;2.33;;;21.40;77.80;;;;;;4937712;29;20042;-76
2022/05/05 09:50:24;;;;;;;3.10;2.10;;;21.40;80.60;;;;;;4937875;29;20483;-79
2022/05/05 09:58:22;;;;;;;5.60;2.80;;;21.60;77.80;;;;;;4937730;29;20107;-79
2022/05/05 10:00:59;;;;;;;3.03;2.13;;;21.60;78.00;;;;;;4920345;29;20031;-78
2022/05/05 10:06:40;;;;;;;2.50;2.03;;;21.70;76.30;;;;;;4937362;29;20052;-78
2022/05/05 10:09:08;;;;;;;3.22;2.35;;;21.80;77.10;;;;;;4937480;29;20154;-78
2022/05/05 10:11:35;;;;;;;2.83;1.65;;;21.80;74.10;;;;;;4920491;29;20122;-78
2022/05/05 10:14:03;;;;;;;2.90;1.95;;;21.90;73.00;;;;;;4937256;29;20692;-81
2022/05/05 10:16:31;;;;;;;3.38;1.95;;;22.00;72.30;;;;;;4937076;29;20142;-80
2022/05/05 10:19:01;;;;;;;3.42;2.30;;;22.00;69.30;;;;;;4937033;29;20115;-77
2022/05/05 10:21:35;;;;;;;2.30;1.88;;;22.10;69.30;;;;;;4937143;29;20043;-77
2022/05/05 10:24:06;;;;;;;4.43;1.80;;;22.10;67.80;;;;;;4919796;29;20031;-78
2022/05/05 10:26:32;;;;;;;3.22;2.38;;;22.10;68.30;;;;;;4936673;29;20070;-77
2022/05/05 10:28:58;;;;;;;2.35;2.15;;;22.20;70.60;;;;;;4919504;29;20356;-78
2022/05/05 10:31:30;;;;;;;2.42;2.22;;;22.20;70.80;;;;;;4936648;29;20012;-80
2022/05/05 10:34:01;;;;;;;2.67;2.40;;;22.20;69.50;;;;;;4919830;29;20028;-79
2022/05/05 10:36:30;;;;;;;2.92;2.00;;;22.00;70.20;;;;;;4936527;29;20159;-81
2022/05/05 10:38:57;;;;;;;3.63;2.47;;;22.10;72.80;;;;;;4919686;29;20384;-79
2022/05/05 10:41:39;;;;;;;2.40;2.20;;;22.20;71.50;;;;;;4919497;29;20055;-79
2022/05/05 10:44:16;;;;;;;2.95;2.10;;;22.30;72.40;;;;;;4936861;29;20031;-79
2022/05/05 10:46:57;;;;;;;4.40;2.50;;;22.40;71.80;;;;;;4919179;29;20087;-80
2022/05/05 10:49:39;;;;;;;3.78;2.35;;;22.40;69.40;;;;;;4936431;29;20542;-79
2022/05/05 10:52:11;;;;;;;6.10;2.20;;;22.30;68.50;;;;;;4934971;29;20026;-78
2022/05/05 10:54:47;;;;;;;3.03;2.20;;;22.40;69.50;;;;;;4919232;29;20043;-79
2022/05/05 10:57:25;;;;;;;2.75;2.17;;;22.40;67.50;;;;;;4936326;29;20384;-78
2022/05/05 11:00:46;;;;;;;4.63;1.73;;;22.50;66.80;;;;;;4900382;29;20567;-78
2022/05/05 11:03:14;;;;;;;2.60;1.67;;;22.70;68.10;;;;;;4821695;29;20137;-78
2022/05/05 11:05:40;;;;;;;2.75;2.10;;;22.70;67.60;;;;;;4912059;29;20075;-78
2022/05/05 11:08:09;;;;;;;4.30;1.73;;;22.80;65.50;;;;;;4916668;29;20056;-78
2022/05/05 11:11:39;;;;;;;4.15;1.83;;;22.70;64.40;;;;;;4917249;29;20107;-78
2022/05/05 11:13:38;;;;;;;2.60;2.13;;;22.70;63.80;;;;;;4917182;29;20527;-78
2022/05/05 11:22:14;;;;;;;2.22;2.03;;;23.00;65.10;;;;;;4916938;29;20030;-78
2022/05/05 11:24:44;;;;;;;2.67;2.08;;;23.10;62.20;;;;;;4916601;29;20024;-78
2022/05/05 11:27:14;;;;;;;4.60;2.28;;;22.90;61.80;;;;;;4900054;29;20055;-79
2022/05/05 11:29:40;;;;;;;2.40;2.13;;;22.80;63.90;;;;;;4900377;29;20024;-80
2022/05/05 11:32:08;;;;;;;3.33;2.05;;;22.90;63.90;;;;;;4917075;29;20503;-78
2022/05/05 11:34:36;;;;;;;6.32;2.30;;;23.00;64.40;;;;;;4917097;29;20384;-80
2022/05/05 11:37:03;;;;;;;2.90;2.13;;;23.10;65.80;;;;;;4916818;29;20028;-79
2022/05/05 11:39:31;;;;;;;3.67;2.00;;;23.20;66.10;;;;;;4899692;29;20020;-79
2022/05/05 11:41:57;;;;;;;4.40;2.20;;;23.30;66.70;;;;;;4916813;29;20032;-80
2022/05/05 11:44:25;;;;;;;2.33;1.77;;;23.30;65.50;;;;;;4899956;29;20076;-80
2022/05/05 11:46:53;;;;;;;3.92;2.28;;;23.40;64.80;;;;;;4917003;29;20118;-79
2022/05/05 11:49:19;;;;;;;7.25;2.08;;;23.40;65.30;;;;;;4916859;29;20468;-78
2022/05/05 11:51:45;;;;;;;3.47;1.95;;;23.50;64.60;;;;;;4916892;29;20063;-79
2022/05/05 11:54:14;;;;;;;2.47;1.92;;;23.40;64.60;;;;;;4916926;29;20060;-79
2022/05/05 11:56:46;;;;;;;2.47;2.03;;;23.30;62.90;;;;;;4916688;29;20032;-80
2022/05/05 12:02:20;;;;;;;3.38;2.28;;;23.40;63.00;;;;;;4935817;29;20047;-78
2022/05/05 12:04:55;;;;;;;1.90;1.80;;;23.30;63.80;;;;;;4918462;29;20079;-78
2022/05/05 12:07:23;;;;;;;2.75;2.00;;;23.50;62.80;;;;;;4918173;29;20385;-77
2022/05/05 12:09:54;;;;;;;2.33;1.95;;;23.60;64.10;;;;;;4935422;29;20048;-77
2022/05/05 12:12:22;;;;;;;4.85;2.08;;;23.80;77.60;;;;;;4935419;29;20112;-78
2022/05/05 12:14:49;;;;;;;3.58;2.22;;;23.60;76.00;;;;;;4935382;29;20154;-77
2022/05/05 12:17:20;;;;;;;3.88;1.98;;;23.60;79.00;;;;;;4934984;29;20024;-77
2022/05/05 12:19:55;;;;;;;2.10;1.88;;;23.30;62.00;;;;;;4935221;29;20034;-78
2022/05/05 12:22:37;;;;;;;2.38;2.10;;;23.30;62.50;;;;;;4934991;29;20106;-77
2022/05/05 12:25:14;;;;;;;2.55;1.90;;;23.40;62.10;;;;;;4918206;29;20047;-78
2022/05/05 12:27:53;;;;;;;2.10;1.90;;;23.60;63.70;;;;;;4917944;29;20051;-78
2022/05/05 12:30:39;;;;;;;4.53;2.40;;;23.70;63.10;;;;;;4934926;29;20119;-77
2022/05/05 12:33:06;;;;;;;4.88;2.10;;;23.60;62.90;;;;;;4935034;29;20027;-78
2022/05/05 12:35:34;;;;;;;2.22;2.03;;;23.50;62.60;;;;;;4934944;29;20032;-78
2022/05/05 12:38:01;;;;;;;1.95;1.73;;;23.50;62.00;;;;;;4918082;29;20114;-78
2022/05/05 12:40:27;;;;;;;4.25;2.40;;;23.60;62.20;;;;;;4934895;29;20027;-78
2022/05/05 12:43:09;;;;;;;2.05;1.65;;;23.80;61.60;;;;;;4917844;29;20034;-79
2022/05/05 12:45:36;;;;;;;2.72;2.05;;;24.10;61.60;;;;;;4934420;29;20042;-77
2022/05/05 12:48:06;;;;;;;3.65;1.92;;;24.20;62.00;;;;;;4934573;29;20019;-77
2022/05/05 12:50:43;;;;;;;3.03;1.90;;;24.30;59.60;;;;;;4934666;29;20458;-78
2022/05/05 13:01:31;;;;;;;2.92;1.73;;;23.90;58.40;;;;;;4934675;29;20038;-78
2022/05/05 13:04:06;;;;;;;1.45;1.30;;;24.00;56.30;;;;;;4934520;29;20589;-77
2022/05/05 13:06:43;;;;;;;2.22;1.33;;;24.10;54.80;;;;;;4934871;29;20028;-77
2022/05/05 13:09:11;;;;;;;2.42;2.22;;;24.30;54.20;;;;;;4934702;29;20083;-78
2022/05/05 13:11:46;;;;;;;1.98;1.52;;;24.50;55.90;;;;;;4934794;29;20019;-78
2022/05/05 13:14:12;;;;;;;2.45;1.90;;;24.70;53.60;;;;;;4934997;29;20031;-78
2022/05/05 13:16:38;;;;;;;2.95;1.58;;;24.50;52.30;;;;;;4921630;29;20035;-78
2022/05/05 13:19:05;;;;;;;2.08;1.88;;;24.50;55.10;;;;;;4921333;29;20456;-79
2022/05/05 13:21:33;;;;;;;2.47;1.70;;;24.50;53.20;;;;;;4921596;29;20367;-77
2022/05/05 13:23:59;;;;;;;6.10;1.83;;;24.50;52.60;;;;;;4921656;29;20026;-78
2022/05/05 13:26:25;;;;;;;3.47;1.70;;;24.40;52.40;;;;;;4938641;29;20173;-80
2022/05/05 13:28:51;;;;;;;1.48;1.38;;;24.30;54.00;;;;;;4938393;29;20134;-79
2022/05/05 13:31:17;;;;;;;1.92;1.55;;;24.20;54.80;;;;;;4938319;29;20027;-79
2022/05/05 13:33:43;;;;;;;2.92;1.95;;;24.00;54.30;;;;;;4938190;29;20020;-80
2022/05/05 13:36:08;;;;;;;3.47;1.73;;;23.80;53.90;;;;;;4937825;29;20051;-80
2022/05/05 13:38:34;;;;;;;1.90;1.67;;;23.70;55.90;;;;;;4937378;29;20051;-80
2022/05/05 13:41:00;;;;;;;4.22;1.50;;;23.80;55.60;;;;;;4920885;29;20115;-81
2022/05/05 13:43:25;;;;;;;1.90;1.63;;;23.80;55.40;;;;;;4937648;29;20034;-83
2022/05/05 13:45:52;;;;;;;3.53;1.35;;;24.00;53.90;;;;;;4920389;29;20079;-81
2022/05/05 13:48:18;;;;;;;3.35;1.50;;;23.90;53.20;;;;;;4920625;29;20024;-81